sensor_id;sensor_type;location;lat;lon;timestamp;pressure;altitude;pressure_sealevel;temperature;humidity
52361;BME280;38294;42.966;1.608;2022-09-12T00:00:46;96764.84;;;24.61;50.11
52361;BME280;38294;42.966;1.608;2022-09-12T00:03:12;96765.50;;;24.65;49.88
52361;BME280;38294;42.966;1.608;2022-09-12T00:05:45;96763.09;;;25.13;48.45
52361;BME280;38294;42.966;1.608;2022-09-12T00:08:12;96756.69;;;25.03;48.84
52361;BME280;38294;42.966;1.608;2022-09-12T00:10:39;96762.47;;;25.45;47.67
52361;BME280;38294;42.966;1.608;2022-09-12T00:13:07;96769.28;;;25.07;48.77
52361;BME280;38294;42.966;1.608;2022-09-12T00:15:40;96761.53;;;25.39;48.26
52361;BME280;38294;42.966;1.608;2022-09-12T00:18:07;96758.38;;;24.82;49.74
52361;BME280;38294;42.966;1.608;2022-09-12T00:20:33;96753.22;;;24.72;49.48
52361;BME280;38294;42.966;1.608;2022-09-12T00:22:59;96752.59;;;24.77;49.50
52361;BME280;38294;42.966;1.608;2022-09-12T00:25:25;96759.53;;;24.14;51.71
52361;BME280;38294;42.966;1.608;2022-09-12T00:27:50;96759.41;;;24.76;49.49
52361;BME280;38294;42.966;1.608;2022-09-12T00:30:16;96752.09;;;24.60;49.77
52361;BME280;38294;42.966;1.608;2022-09-12T00:32:41;96761.63;;;24.81;49.59
52361;BME280;38294;42.966;1.608;2022-09-12T00:35:07;96750.63;;;24.46;50.62
52361;BME280;38294;42.966;1.608;2022-09-12T00:37:33;96750.50;;;24.50;50.33
52361;BME280;38294;42.966;1.608;2022-09-12T00:39:59;96749.78;;;24.68;49.57
52361;BME280;38294;42.966;1.608;2022-09-12T00:42:24;96732.63;;;24.56;49.73
52361;BME280;38294;42.966;1.608;2022-09-12T00:44:51;96740.88;;;24.60;49.73
52361;BME280;38294;42.966;1.608;2022-09-12T00:47:28;96733.25;;;24.51;50.31
52361;BME280;38294;42.966;1.608;2022-09-12T00:50:15;96741.03;;;24.56;50.03
52361;BME280;38294;42.966;1.608;2022-09-12T00:52:58;96743.44;;;24.36;51.04
52361;BME280;38294;42.966;1.608;2022-09-12T00:55:32;96739.66;;;24.12;51.69
52361;BME280;38294;42.966;1.608;2022-09-12T00:58:08;96735.38;;;24.38;50.87
52361;BME280;38294;42.966;1.608;2022-09-12T01:00:35;96734.59;;;24.29;50.92
52361;BME280;38294;42.966;1.608;2022-09-12T01:03:11;96742.34;;;24.25;51.05
52361;BME280;38294;42.966;1.608;2022-09-12T01:05:43;96739.47;;;23.85;52.17
52361;BME280;38294;42.966;1.608;2022-09-12T01:08:12;96731.91;;;24.25;50.89
52361;BME280;38294;42.966;1.608;2022-09-12T01:10:38;96727.91;;;24.04;51.88
52361;BME280;38294;42.966;1.608;2022-09-12T01:13:06;96731.22;;;23.81;52.22
52361;BME280;38294;42.966;1.608;2022-09-12T01:15:32;96730.25;;;24.06;51.55
52361;BME280;38294;42.966;1.608;2022-09-12T01:18:14;96725.09;;;24.26;50.96
52361;BME280;38294;42.966;1.608;2022-09-12T01:20:52;96723.44;;;24.07;51.56
52361;BME280;38294;42.966;1.608;2022-09-12T01:31:42;96718.38;;;24.24;51.31
52361;BME280;38294;42.966;1.608;2022-09-12T01:39:49;96720.78;;;23.73;52.59
52361;BME280;38294;42.966;1.608;2022-09-12T01:42:34;96716.63;;;23.77;52.56
52361;BME280;38294;42.966;1.608;2022-09-12T01:45:23;96710.13;;;24.20;51.05
52361;BME280;38294;42.966;1.608;2022-09-12T01:47:57;96718.69;;;24.17;50.89
52361;BME280;38294;42.966;1.608;2022-09-12T01:50:29;96715.47;;;23.96;51.78
52361;BME280;38294;42.966;1.608;2022-09-12T01:52:59;96713.91;;;23.65;52.32
52361;BME280;38294;42.966;1.608;2022-09-12T02:01:09;96712.47;;;23.60;53.21
52361;BME280;38294;42.966;1.608;2022-09-12T02:03:45;96711.34;;;23.48;53.11
52361;BME280;38294;42.966;1.608;2022-09-12T02:06:22;96715.00;;;23.24;53.88
52361;BME280;38294;42.966;1.608;2022-09-12T02:08:53;96717.66;;;23.71;52.97
52361;BME280;38294;42.966;1.608;2022-09-12T02:11:21;96708.59;;;23.97;51.92
52361;BME280;38294;42.966;1.608;2022-09-12T02:13:53;96704.47;;;24.11;51.52
52361;BME280;38294;42.966;1.608;2022-09-12T02:16:25;96706.94;;;24.00;51.61
52361;BME280;38294;42.966;1.608;2022-09-12T02:18:56;96703.34;;;23.69;52.25
52361;BME280;38294;42.966;1.608;2022-09-12T02:21:25;96703.94;;;23.94;51.91
52361;BME280;38294;42.966;1.608;2022-09-12T02:23:58;96710.38;;;23.73;52.14
52361;BME280;38294;42.966;1.608;2022-09-12T02:26:37;96711.19;;;23.52;52.84
52361;BME280;38294;42.966;1.608;2022-09-12T02:29:05;96699.50;;;23.75;51.95
52361;BME280;38294;42.966;1.608;2022-09-12T02:39:25;96701.34;;;23.69;51.87
52361;BME280;38294;42.966;1.608;2022-09-12T02:41:53;96697.66;;;23.81;51.39
52361;BME280;38294;42.966;1.608;2022-09-12T02:44:20;96707.47;;;23.86;51.25
52361;BME280;38294;42.966;1.608;2022-09-12T02:46:53;96694.13;;;24.30;50.47
52361;BME280;38294;42.966;1.608;2022-09-12T02:49:20;96697.53;;;23.85;51.26
52361;BME280;38294;42.966;1.608;2022-09-12T02:51:47;96690.31;;;24.05;50.82
52361;BME280;38294;42.966;1.608;2022-09-12T02:54:15;96693.88;;;24.06;50.97
52361;BME280;38294;42.966;1.608;2022-09-12T02:56:44;96701.72;;;23.80;51.31
52361;BME280;38294;42.966;1.608;2022-09-12T02:59:13;96694.47;;;23.18;53.55
52361;BME280;38294;42.966;1.608;2022-09-12T03:09:58;96679.22;;;23.62;52.27
52361;BME280;38294;42.966;1.608;2022-09-12T03:23:36;96682.53;;;24.00;51.38
52361;BME280;38294;42.966;1.608;2022-09-12T03:26:08;96675.03;;;23.97;51.38
52361;BME280;38294;42.966;1.608;2022-09-12T03:28:35;96675.59;;;24.14;50.59
52361;BME280;38294;42.966;1.608;2022-09-12T03:31:11;96675.50;;;23.96;51.13
52361;BME280;38294;42.966;1.608;2022-09-12T03:33:38;96675.13;;;23.45;52.46
52361;BME280;38294;42.966;1.608;2022-09-12T03:36:03;96673.06;;;23.67;52.04
52361;BME280;38294;42.966;1.608;2022-09-12T03:38:30;96690.22;;;22.91;53.89
52361;BME280;38294;42.966;1.608;2022-09-12T03:40:55;96688.81;;;23.09;53.63
52361;BME280;38294;42.966;1.608;2022-09-12T03:43:21;96686.34;;;23.54;52.14
52361;BME280;38294;42.966;1.608;2022-09-12T03:45:49;96673.47;;;23.87;51.49
52361;BME280;38294;42.966;1.608;2022-09-12T03:48:17;96690.31;;;23.44;52.40
52361;BME280;38294;42.966;1.608;2022-09-12T03:50:43;96681.34;;;23.49;52.17
52361;BME280;38294;42.966;1.608;2022-09-12T03:53:08;96680.06;;;23.72;51.74
52361;BME280;38294;42.966;1.608;2022-09-12T03:55:34;96680.44;;;23.52;52.38
52361;BME280;38294;42.966;1.608;2022-09-12T03:58:00;96672.13;;;23.70;51.94
52361;BME280;38294;42.966;1.608;2022-09-12T04:00:26;96667.31;;;23.71;51.72
52361;BME280;38294;42.966;1.608;2022-09-12T04:02:55;96670.31;;;23.45;52.58
52361;BME280;38294;42.966;1.608;2022-09-12T04:05:22;96661.53;;;23.65;51.96
52361;BME280;38294;42.966;1.608;2022-09-12T04:07:48;96657.28;;;23.91;51.09
52361;BME280;38294;42.966;1.608;2022-09-12T04:10:13;96668.03;;;23.62;51.42
52361;BME280;38294;42.966;1.608;2022-09-12T04:12:39;96670.16;;;23.49;52.15
52361;BME280;38294;42.966;1.608;2022-09-12T04:15:05;96662.66;;;23.68;51.92
52361;BME280;38294;42.966;1.608;2022-09-12T04:17:33;96664.97;;;23.38;52.15
52361;BME280;38294;42.966;1.608;2022-09-12T04:19:59;96662.88;;;23.51;52.18
52361;BME280;38294;42.966;1.608;2022-09-12T04:22:24;96666.66;;;22.92;53.38
52361;BME280;38294;42.966;1.608;2022-09-12T04:24:50;96677.91;;;23.01;53.71
52361;BME280;38294;42.966;1.608;2022-09-12T04:27:16;96675.13;;;23.45;52.32
52361;BME280;38294;42.966;1.608;2022-09-12T04:29:41;96679.94;;;23.44;51.93
52361;BME280;38294;42.966;1.608;2022-09-12T04:32:07;96672.47;;;23.41;52.39
52361;BME280;38294;42.966;1.608;2022-09-12T04:34:33;96677.03;;;23.14;53.38
52361;BME280;38294;42.966;1.608;2022-09-12T04:36:59;96669.00;;;23.16;53.08
52361;BME280;38294;42.966;1.608;2022-09-12T04:39:25;96684.00;;;23.31;52.75
52361;BME280;38294;42.966;1.608;2022-09-12T04:41:50;96683.28;;;23.18;53.05
52361;BME280;38294;42.966;1.608;2022-09-12T04:44:16;96687.44;;;22.91;53.90
52361;BME280;38294;42.966;1.608;2022-09-12T04:46:44;96681.69;;;23.29;52.89
52361;BME280;38294;42.966;1.608;2022-09-12T04:49:11;96692.78;;;22.64;54.48
52361;BME280;38294;42.966;1.608;2022-09-12T04:51:39;96693.03;;;22.91;54.10
52361;BME280;38294;42.966;1.608;2022-09-12T04:54:14;96678.34;;;22.78;54.37
52361;BME280;38294;42.966;1.608;2022-09-12T04:56:42;96689.41;;;23.04;53.69
52361;BME280;38294;42.966;1.608;2022-09-12T04:59:09;96689.91;;;23.33;52.93
52361;BME280;38294;42.966;1.608;2022-09-12T05:01:35;96678.41;;;23.52;52.13
52361;BME280;38294;42.966;1.608;2022-09-12T05:04:01;96677.03;;;23.14;52.89
52361;BME280;38294;42.966;1.608;2022-09-12T05:06:33;96679.59;;;23.21;52.86
52361;BME280;38294;42.966;1.608;2022-09-12T05:09:00;96689.66;;;23.18;52.93
52361;BME280;38294;42.966;1.608;2022-09-12T05:11:31;96686.66;;;22.91;53.75
52361;BME280;38294;42.966;1.608;2022-09-12T05:13:57;96688.41;;;22.97;53.39
52361;BME280;38294;42.966;1.608;2022-09-12T05:16:23;96687.06;;;23.24;52.73
52361;BME280;38294;42.966;1.608;2022-09-12T05:18:50;96682.50;;;22.74;54.09
52361;BME280;38294;42.966;1.608;2022-09-12T05:21:18;96675.03;;;22.58;54.91
52361;BME280;38294;42.966;1.608;2022-09-12T05:23:44;96681.38;;;22.59;54.87
52361;BME280;38294;42.966;1.608;2022-09-12T05:26:14;96692.22;;;23.04;53.63
52361;BME280;38294;42.966;1.608;2022-09-12T05:28:40;96692.06;;;23.07;53.14
52361;BME280;38294;42.966;1.608;2022-09-12T05:33:34;96688.06;;;21.76;56.80
52361;BME280;38294;42.966;1.608;2022-09-12T05:36:01;96698.38;;;22.64;54.50
52361;BME280;38294;42.966;1.608;2022-09-12T05:38:27;96693.94;;;22.88;53.71
52361;BME280;38294;42.966;1.608;2022-09-12T05:41:14;96702.59;;;22.69;54.20
52361;BME280;38294;42.966;1.608;2022-09-12T05:43:41;96707.28;;;22.59;54.48
52361;BME280;38294;42.966;1.608;2022-09-12T05:46:12;96713.72;;;22.94;53.65
52361;BME280;38294;42.966;1.608;2022-09-12T05:48:40;96717.13;;;22.76;54.30
52361;BME280;38294;42.966;1.608;2022-09-12T05:51:11;96714.13;;;22.71;54.20
52361;BME280;38294;42.966;1.608;2022-09-12T05:53:39;96714.91;;;22.71;54.03
52361;BME280;38294;42.966;1.608;2022-09-12T05:56:10;96716.91;;;22.71;53.83
52361;BME280;38294;42.966;1.608;2022-09-12T05:58:38;96717.53;;;22.28;55.34
52361;BME280;38294;42.966;1.608;2022-09-12T06:01:15;96722.47;;;23.27;52.78
52361;BME280;38294;42.966;1.608;2022-09-12T06:03:43;96716.88;;;23.27;52.62
52361;BME280;38294;42.966;1.608;2022-09-12T06:06:09;96715.41;;;23.13;52.71
52361;BME280;38294;42.966;1.608;2022-09-12T06:08:38;96710.75;;;22.63;54.05
52361;BME280;38294;42.966;1.608;2022-09-12T06:11:05;96720.28;;;23.00;53.34
52361;BME280;38294;42.966;1.608;2022-09-12T06:13:35;96718.38;;;22.97;53.36
52361;BME280;38294;42.966;1.608;2022-09-12T06:16:12;96717.72;;;23.36;52.32
52361;BME280;38294;42.966;1.608;2022-09-12T06:18:39;96723.44;;;23.33;52.29
52361;BME280;38294;42.966;1.608;2022-09-12T06:21:07;96724.88;;;23.37;52.01
52361;BME280;38294;42.966;1.608;2022-09-12T06:23:33;96722.94;;;23.25;52.33
52361;BME280;38294;42.966;1.608;2022-09-12T06:26:00;96725.88;;;23.43;51.84
52361;BME280;38294;42.966;1.608;2022-09-12T06:28:25;96728.25;;;23.45;51.93
52361;BME280;38294;42.966;1.608;2022-09-12T06:30:51;96725.81;;;22.78;52.84
52361;BME280;38294;42.966;1.608;2022-09-12T06:33:17;96714.38;;;23.20;52.50
52361;BME280;38294;42.966;1.608;2022-09-12T06:35:43;96729.56;;;23.62;51.46
52361;BME280;38294;42.966;1.608;2022-09-12T06:38:09;96724.56;;;23.88;50.63
52361;BME280;38294;42.966;1.608;2022-09-12T06:40:44;96727.38;;;23.57;51.68
52361;BME280;38294;42.966;1.608;2022-09-12T06:43:11;96715.34;;;23.78;51.65
52361;BME280;38294;42.966;1.608;2022-09-12T06:45:39;96718.44;;;24.02;50.35
52361;BME280;38294;42.966;1.608;2022-09-12T06:48:12;96719.53;;;24.04;50.37
52361;BME280;38294;42.966;1.608;2022-09-12T06:50:37;96720.66;;;23.76;51.05
52361;BME280;38294;42.966;1.608;2022-09-12T06:53:03;96711.09;;;24.26;49.92
52361;BME280;38294;42.966;1.608;2022-09-12T06:55:29;96713.13;;;24.35;49.58
52361;BME280;38294;42.966;1.608;2022-09-12T06:57:54;96705.53;;;24.04;50.51
52361;BME280;38294;42.966;1.608;2022-09-12T07:00:20;96714.00;;;22.74;53.90
52361;BME280;38294;42.966;1.608;2022-09-12T07:02:46;96708.34;;;23.74;51.69
52361;BME280;38294;42.966;1.608;2022-09-12T07:05:11;96704.25;;;23.66;52.17
52361;BME280;38294;42.966;1.608;2022-09-12T07:07:38;96691.06;;;23.66;52.27
52361;BME280;38294;42.966;1.608;2022-09-12T07:10:04;96692.84;;;24.13;51.60
52361;BME280;38294;42.966;1.608;2022-09-12T07:12:31;96696.47;;;24.31;51.37
52361;BME280;38294;42.966;1.608;2022-09-12T07:14:56;96702.59;;;24.08;51.75
52361;BME280;38294;42.966;1.608;2022-09-12T07:17:22;96702.19;;;24.19;51.72
52361;BME280;38294;42.966;1.608;2022-09-12T07:19:47;96692.88;;;24.22;52.27
52361;BME280;38294;42.966;1.608;2022-09-12T07:22:13;96695.84;;;23.87;54.78
52361;BME280;38294;42.966;1.608;2022-09-12T07:24:38;96694.97;;;24.09;53.20
52361;BME280;38294;42.966;1.608;2022-09-12T07:27:05;96702.88;;;24.50;51.90
52361;BME280;38294;42.966;1.608;2022-09-12T07:29:31;96699.22;;;24.98;50.55
52361;BME280;38294;42.966;1.608;2022-09-12T07:31:56;96701.56;;;25.18;49.96
52361;BME280;38294;42.966;1.608;2022-09-12T07:34:22;96698.91;;;25.33;49.91
52361;BME280;38294;42.966;1.608;2022-09-12T07:36:48;96695.81;;;25.13;50.54
52361;BME280;38294;42.966;1.608;2022-09-12T07:39:13;96687.94;;;24.44;53.18
52361;BME280;38294;42.966;1.608;2022-09-12T07:41:39;96696.22;;;24.66;52.29
52361;BME280;38294;42.966;1.608;2022-09-12T07:44:04;96693.75;;;24.77;52.11
52361;BME280;38294;42.966;1.608;2022-09-12T07:46:31;96699.84;;;25.21;51.18
52361;BME280;38294;42.966;1.608;2022-09-12T07:48:58;96700.00;;;25.35;51.76
52361;BME280;38294;42.966;1.608;2022-09-12T07:51:25;96697.94;;;24.72;53.22
52361;BME280;38294;42.966;1.608;2022-09-12T07:53:51;96696.75;;;25.19;51.80
52361;BME280;38294;42.966;1.608;2022-09-12T07:56:18;96689.41;;;25.21;52.23
52361;BME280;38294;42.966;1.608;2022-09-12T07:58:44;96698.59;;;25.31;52.04
52361;BME280;38294;42.966;1.608;2022-09-12T08:01:15;96702.78;;;25.53;51.31
52361;BME280;38294;42.966;1.608;2022-09-12T08:03:42;96697.38;;;25.23;52.54
52361;BME280;38294;42.966;1.608;2022-09-12T08:06:17;96700.28;;;25.46;51.59
52361;BME280;38294;42.966;1.608;2022-09-12T08:08:46;96698.91;;;25.24;52.38
52361;BME280;38294;42.966;1.608;2022-09-12T08:11:14;96702.00;;;25.53;51.87
52361;BME280;38294;42.966;1.608;2022-09-12T08:13:41;96702.50;;;24.97;53.07
52361;BME280;38294;42.966;1.608;2022-09-12T08:16:11;96696.56;;;25.31;52.63
52361;BME280;38294;42.966;1.608;2022-09-12T08:18:37;96698.31;;;25.20;52.87
52361;BME280;38294;42.966;1.608;2022-09-12T08:21:08;96700.06;;;26.52;49.21
52361;BME280;38294;42.966;1.608;2022-09-12T08:23:34;96699.56;;;26.86;47.73
52361;BME280;38294;42.966;1.608;2022-09-12T08:26:01;96693.84;;;26.95;47.00
52361;BME280;38294;42.966;1.608;2022-09-12T08:28:29;96693.59;;;27.61;46.00
52361;BME280;38294;42.966;1.608;2022-09-12T08:31:03;96692.22;;;27.56;46.34
52361;BME280;38294;42.966;1.608;2022-09-12T08:33:29;96698.91;;;27.44;46.25
52361;BME280;38294;42.966;1.608;2022-09-12T08:36:11;96702.25;;;27.72;46.18
52361;BME280;38294;42.966;1.608;2022-09-12T08:38:39;96706.19;;;27.80;45.96
52361;BME280;38294;42.966;1.608;2022-09-12T08:41:19;96706.56;;;28.02;45.54
52361;BME280;38294;42.966;1.608;2022-09-12T08:46:38;96703.69;;;28.81;43.62
52361;BME280;38294;42.966;1.608;2022-09-12T08:49:09;96704.09;;;28.94;43.24
52361;BME280;38294;42.966;1.608;2022-09-12T08:51:38;96704.25;;;28.85;43.23
52361;BME280;38294;42.966;1.608;2022-09-12T08:54:13;96704.78;;;29.81;41.11
52361;BME280;38294;42.966;1.608;2022-09-12T08:56:43;96703.56;;;30.13;40.80
52361;BME280;38294;42.966;1.608;2022-09-12T08:59:10;96703.94;;;30.69;39.93
52361;BME280;38294;42.966;1.608;2022-09-12T09:01:43;96698.09;;;30.84;39.57
52361;BME280;38294;42.966;1.608;2022-09-12T09:04:31;96700.25;;;29.89;41.26
52361;BME280;38294;42.966;1.608;2022-09-12T09:07:04;96699.31;;;30.35;40.62
52361;BME280;38294;42.966;1.608;2022-09-12T09:09:58;96697.31;;;30.04;41.37
52361;BME280;38294;42.966;1.608;2022-09-12T09:12:33;96694.06;;;30.16;41.64
52361;BME280;38294;42.966;1.608;2022-09-12T09:17:42;96702.09;;;30.24;41.27
52361;BME280;38294;42.966;1.608;2022-09-12T09:28:11;96695.91;;;29.37;43.45
52361;BME280;38294;42.966;1.608;2022-09-12T09:30:42;96697.66;;;29.86;42.45
52361;BME280;38294;42.966;1.608;2022-09-12T09:33:13;96690.59;;;30.33;41.65
52361;BME280;38294;42.966;1.608;2022-09-12T09:35:45;96686.56;;;30.45;41.62
52361;BME280;38294;42.966;1.608;2022-09-12T09:38:33;96689.09;;;30.37;41.63
52361;BME280;38294;42.966;1.608;2022-09-12T09:43:46;96702.38;;;30.68;41.26
52361;BME280;38294;42.966;1.608;2022-09-12T09:46:11;96705.25;;;30.37;42.16
52361;BME280;38294;42.966;1.608;2022-09-12T09:48:44;96701.16;;;31.45;40.11
52361;BME280;38294;42.966;1.608;2022-09-12T09:51:13;96701.44;;;31.47;40.17
52361;BME280;38294;42.966;1.608;2022-09-12T09:53:47;96694.72;;;30.80;41.68
52361;BME280;38294;42.966;1.608;2022-09-12T09:56:44;96698.34;;;30.80;41.86
52361;BME280;38294;42.966;1.608;2022-09-12T10:02:00;96708.34;;;31.35;41.19
52361;BME280;38294;42.966;1.608;2022-09-12T10:04:35;96698.13;;;30.89;41.94
52361;BME280;38294;42.966;1.608;2022-09-12T10:07:04;96700.84;;;31.20;41.98
52361;BME280;38294;42.966;1.608;2022-09-12T10:09:34;96702.00;;;31.56;41.48
52361;BME280;38294;42.966;1.608;2022-09-12T10:12:18;96700.44;;;30.85;42.70
52361;BME280;38294;42.966;1.608;2022-09-12T10:14:56;96697.25;;;31.31;42.09
52361;BME280;38294;42.966;1.608;2022-09-12T10:17:31;96693.75;;;31.53;41.84
52361;BME280;38294;42.966;1.608;2022-09-12T10:20:03;96699.69;;;31.60;41.69
52361;BME280;38294;42.966;1.608;2022-09-12T10:22:29;96698.09;;;31.43;42.73
52361;BME280;38294;42.966;1.608;2022-09-12T10:24:58;96692.50;;;31.70;42.33
52361;BME280;38294;42.966;1.608;2022-09-12T10:27:27;96692.78;;;31.72;42.53
52361;BME280;38294;42.966;1.608;2022-09-12T10:30:03;96696.16;;;32.10;41.46
52361;BME280;38294;42.966;1.608;2022-09-12T10:32:40;96701.28;;;32.34;40.97
52361;BME280;38294;42.966;1.608;2022-09-12T10:35:23;96708.25;;;32.27;40.81
52361;BME280;38294;42.966;1.608;2022-09-12T10:37:56;96713.94;;;32.05;41.84
52361;BME280;38294;42.966;1.608;2022-09-12T10:40:43;96722.41;;;32.21;38.84
52361;BME280;38294;42.966;1.608;2022-09-12T10:43:25;96719.06;;;32.12;37.65
52361;BME280;38294;42.966;1.608;2022-09-12T10:45:56;96726.78;;;32.61;37.09
52361;BME280;38294;42.966;1.608;2022-09-12T10:48:31;96717.66;;;33.02;35.73
52361;BME280;38294;42.966;1.608;2022-09-12T10:50:58;96696.13;;;31.82;37.62
52361;BME280;38294;42.966;1.608;2022-09-12T10:56:12;96683.22;;;32.42;40.97
52361;BME280;38294;42.966;1.608;2022-09-12T11:01:49;96704.06;;;32.78;39.30
52361;BME280;38294;42.966;1.608;2022-09-12T11:12:06;96708.63;;;33.61;37.87
52361;BME280;38294;42.966;1.608;2022-09-12T11:14:58;96712.91;;;33.26;37.92
52361;BME280;38294;42.966;1.608;2022-09-12T11:17:44;96717.91;;;34.38;36.14
52361;BME280;38294;42.966;1.608;2022-09-12T11:26:56;96715.66;;;34.55;36.61
52361;BME280;38294;42.966;1.608;2022-09-12T11:37:49;96742.09;;;34.50;34.97
52361;BME280;38294;42.966;1.608;2022-09-12T11:43:30;96736.78;;;34.65;35.42
52361;BME280;38294;42.966;1.608;2022-09-12T11:46:04;96736.84;;;34.84;34.64
52361;BME280;38294;42.966;1.608;2022-09-12T11:48:42;96740.59;;;34.43;35.18
52361;BME280;38294;42.966;1.608;2022-09-12T11:51:20;96742.94;;;34.39;35.96
52361;BME280;38294;42.966;1.608;2022-09-12T11:53:59;96750.56;;;34.25;36.22
52361;BME280;38294;42.966;1.608;2022-09-12T11:56:26;96749.94;;;34.68;35.50
52361;BME280;38294;42.966;1.608;2022-09-12T11:59:29;96758.91;;;34.18;36.31
52361;BME280;38294;42.966;1.608;2022-09-12T12:01:58;96758.97;;;33.66;37.27
52361;BME280;38294;42.966;1.608;2022-09-12T12:04:33;96760.38;;;33.32;37.93
52361;BME280;38294;42.966;1.608;2022-09-12T12:07:08;96769.06;;;32.65;39.14
52361;BME280;38294;42.966;1.608;2022-09-12T12:09:42;96760.38;;;33.32;38.33
52361;BME280;38294;42.966;1.608;2022-09-12T12:12:16;96775.16;;;34.23;36.76
52361;BME280;38294;42.966;1.608;2022-09-12T12:14:45;96774.59;;;33.89;36.99
52361;BME280;38294;42.966;1.608;2022-09-12T12:17:16;96772.16;;;34.40;35.71
52361;BME280;38294;42.966;1.608;2022-09-12T12:19:44;96761.63;;;33.42;37.77
52361;BME280;38294;42.966;1.608;2022-09-12T12:22:22;96775.81;;;33.47;37.78
52361;BME280;38294;42.966;1.608;2022-09-12T12:24:57;96775.69;;;33.06;38.68
52361;BME280;38294;42.966;1.608;2022-09-12T12:27:50;96777.50;;;32.93;39.30
52361;BME280;38294;42.966;1.608;2022-09-12T12:35:39;96757.63;;;34.13;38.10
52361;BME280;38294;42.966;1.608;2022-09-12T12:38:31;96766.66;;;34.17;39.55
52361;BME280;38294;42.966;1.608;2022-09-12T12:43:51;96761.03;;;32.80;43.87
52361;BME280;38294;42.966;1.608;2022-09-12T12:46:21;96765.19;;;32.79;44.01
52361;BME280;38294;42.966;1.608;2022-09-12T12:52:14;96759.94;;;33.80;42.04
52361;BME280;38294;42.966;1.608;2022-09-12T12:57:22;96763.56;;;33.00;43.65
52361;BME280;38294;42.966;1.608;2022-09-12T13:03:21;96758.41;;;33.10;43.69
52361;BME280;38294;42.966;1.608;2022-09-12T13:05:57;96765.47;;;32.31;46.46
52361;BME280;38294;42.966;1.608;2022-09-12T13:10:57;96769.50;;;32.97;43.57
52361;BME280;38294;42.966;1.608;2022-09-12T13:13:29;96765.44;;;32.81;43.73
52361;BME280;38294;42.966;1.608;2022-09-12T13:15:56;96780.91;;;32.80;43.65
52361;BME280;38294;42.966;1.608;2022-09-12T13:18:23;96760.84;;;33.99;40.97
52361;BME280;38294;42.966;1.608;2022-09-12T13:21:19;96747.34;;;34.05;40.22
52361;BME280;38294;42.966;1.608;2022-09-12T13:24:12;96698.22;;;33.22;42.47
52361;BME280;38294;42.966;1.608;2022-09-12T13:26:43;96670.56;;;33.28;42.89
52361;BME280;38294;42.966;1.608;2022-09-12T13:31:37;96669.09;;;32.14;46.38
52361;BME280;38294;42.966;1.608;2022-09-12T13:34:04;96666.88;;;32.87;44.83
52361;BME280;38294;42.966;1.608;2022-09-12T13:42:41;96654.84;;;34.34;41.09
52361;BME280;38294;42.966;1.608;2022-09-12T13:45:26;96655.97;;;33.08;43.48
52361;BME280;38294;42.966;1.608;2022-09-12T13:47:55;96650.59;;;32.93;44.85
52361;BME280;38294;42.966;1.608;2022-09-12T13:50:24;96648.19;;;32.40;46.36
52361;BME280;38294;42.966;1.608;2022-09-12T13:52:57;96642.63;;;32.86;45.59
52361;BME280;38294;42.966;1.608;2022-09-12T13:55:35;96639.03;;;33.38;44.48
52361;BME280;38294;42.966;1.608;2022-09-12T14:00:38;96635.72;;;32.76;44.66
52361;BME280;38294;42.966;1.608;2022-09-12T14:03:24;96632.72;;;33.56;42.90
52361;BME280;38294;42.966;1.608;2022-09-12T14:06:09;96633.75;;;33.06;43.88
52361;BME280;38294;42.966;1.608;2022-09-12T14:08:39;96614.91;;;33.55;42.82
52361;BME280;38294;42.966;1.608;2022-09-12T14:11:20;96610.47;;;32.67;45.59
52361;BME280;38294;42.966;1.608;2022-09-12T14:13:48;96617.75;;;32.35;45.71
52361;BME280;38294;42.966;1.608;2022-09-12T14:16:14;96611.03;;;32.49;45.70
52361;BME280;38294;42.966;1.608;2022-09-12T14:18:41;96604.38;;;32.30;46.25
52361;BME280;38294;42.966;1.608;2022-09-12T14:23:51;96591.16;;;32.54;45.64
52361;BME280;38294;42.966;1.608;2022-09-12T14:26:19;96589.91;;;33.07;44.38
52361;BME280;38294;42.966;1.608;2022-09-12T14:28:46;96582.91;;;32.62;45.96
52361;BME280;38294;42.966;1.608;2022-09-12T14:31:22;96579.53;;;33.21;44.51
52361;BME280;38294;42.966;1.608;2022-09-12T14:33:50;96572.66;;;33.76;42.76
52361;BME280;38294;42.966;1.608;2022-09-12T14:39:18;96572.19;;;33.37;43.52
52361;BME280;38294;42.966;1.608;2022-09-12T14:41:46;96565.78;;;32.84;44.33
52361;BME280;38294;42.966;1.608;2022-09-12T14:44:21;96565.63;;;33.06;44.82
52361;BME280;38294;42.966;1.608;2022-09-12T14:46:48;96551.59;;;32.84;45.36
52361;BME280;38294;42.966;1.608;2022-09-12T14:51:55;96561.94;;;33.58;43.85
52361;BME280;38294;42.966;1.608;2022-09-12T14:59:43;96542.56;;;33.62;43.49
52361;BME280;38294;42.966;1.608;2022-09-12T15:04:50;96550.75;;;32.32;46.43
52361;BME280;38294;42.966;1.608;2022-09-12T15:07:32;96539.88;;;33.04;45.00
52361;BME280;38294;42.966;1.608;2022-09-12T15:10:01;96539.31;;;32.54;45.64
52361;BME280;38294;42.966;1.608;2022-09-12T15:12:28;96529.47;;;31.92;47.17
52361;BME280;38294;42.966;1.608;2022-09-12T15:15:12;96538.22;;;31.94;47.79
52361;BME280;38294;42.966;1.608;2022-09-12T15:17:38;96520.19;;;32.08;47.58
52361;BME280;38294;42.966;1.608;2022-09-12T15:20:03;96516.91;;;33.02;44.98
52361;BME280;38294;42.966;1.608;2022-09-12T15:22:31;96522.84;;;33.40;44.60
52361;BME280;38294;42.966;1.608;2022-09-12T15:24:57;96512.78;;;33.39;43.86
52361;BME280;38294;42.966;1.608;2022-09-12T15:27:24;96519.38;;;33.22;44.32
52361;BME280;38294;42.966;1.608;2022-09-12T15:29:53;96516.13;;;32.66;45.29
52361;BME280;38294;42.966;1.608;2022-09-12T15:32:23;96518.25;;;32.38;46.55
52361;BME280;38294;42.966;1.608;2022-09-12T15:34:49;96507.75;;;32.85;44.81
52361;BME280;38294;42.966;1.608;2022-09-12T15:37:16;96510.84;;;32.30;46.40
52361;BME280;38294;42.966;1.608;2022-09-12T15:39:41;96506.81;;;31.92;46.99
52361;BME280;38294;42.966;1.608;2022-09-12T15:42:10;96505.44;;;33.19;44.33
52361;BME280;38294;42.966;1.608;2022-09-12T15:44:35;96500.78;;;32.29;46.45